Time;durP1;ratioP1;P1;durP2;ratioP2;P2;SDS_P1;SDS_P2;PMS_P1;PMS_P2;Temp;Humidity;BMP_temperature;BMP_pressure;BME280_temperature;BME280_humidity;BME280_pressure;Samples;Min_cycle;Max_cycle;Signal;HPM_P1;HPM_P2
2023/09/03 00:02:08;;;;;;;15.85;12.27;;;13.80;99.90;;;;;;5090777;28;20032;-80
2023/09/03 00:04:34;;;;;;;15.75;11.90;;;13.80;99.90;;;;;;5090801;28;20135;-79
2023/09/03 00:07:00;;;;;;;14.13;10.50;;;13.70;99.90;;;;;;5072490;28;20036;-79
2023/09/03 00:09:25;;;;;;;12.63;10.48;;;13.70;99.90;;;;;;5072193;28;20076;-79
2023/09/03 00:11:51;;;;;;;18.48;12.25;;;13.70;99.90;;;;;;5091692;28;20024;-79
2023/09/03 00:14:17;;;;;;;16.13;11.45;;;13.70;99.90;;;;;;5090345;28;20046;-80
2023/09/03 00:16:42;;;;;;;14.57;11.57;;;13.70;99.90;;;;;;5091875;28;20163;-79
2023/09/03 00:19:08;;;;;;;13.77;10.05;;;13.70;99.90;;;;;;5090481;28;20481;-79
2023/09/03 00:21:34;;;;;;;13.73;11.02;;;13.70;99.90;;;;;;5090790;28;20024;-78
2023/09/03 00:24:00;;;;;;;15.50;11.05;;;13.70;99.90;;;;;;5091473;28;20505;-79
2023/09/03 00:26:27;;;;;;;14.07;10.45;;;13.70;99.90;;;;;;5091051;28;20402;-78
2023/09/03 00:28:53;;;;;;;13.95;10.75;;;13.70;99.90;;;;;;5091244;28;20036;-78
2023/09/03 00:31:21;;;;;;;10.70;8.77;;;13.70;99.90;;;;;;5090565;28;20016;-78
2023/09/03 00:33:47;;;;;;;11.48;8.75;;;13.70;99.90;;;;;;5072892;28;20130;-78
2023/09/03 00:36:13;;;;;;;11.48;8.98;;;13.70;99.90;;;;;;5091161;28;20465;-78
2023/09/03 00:38:39;;;;;;;8.68;7.82;;;13.70;99.90;;;;;;5090429;28;20020;-79
2023/09/03 00:41:05;;;;;;;10.88;8.18;;;13.70;99.90;;;;;;5091460;28;20384;-79
2023/09/03 00:43:31;;;;;;;11.02;9.45;;;13.70;99.90;;;;;;5090205;28;20057;-78
2023/09/03 00:46:01;;;;;;;11.32;8.98;;;13.60;99.90;;;;;;5090547;28;20494;-78
2023/09/03 00:48:28;;;;;;;10.73;8.30;;;13.60;99.90;;;;;;5090355;28;20020;-78
2023/09/03 00:50:58;;;;;;;9.80;8.63;;;13.60;99.90;;;;;;5090673;28;20330;-78
2023/09/03 00:53:25;;;;;;;17.02;9.15;;;13.50;99.90;;;;;;5090402;28;20036;-78
2023/09/03 00:55:51;;;;;;;15.23;9.35;;;13.50;99.90;;;;;;5072597;28;20039;-78
2023/09/03 00:58:19;;;;;;;11.90;10.23;;;13.40;99.90;;;;;;5090503;28;20031;-78
2023/09/03 01:00:44;;;;;;;12.50;9.38;;;13.40;99.90;;;;;;5091058;28;20104;-78
2023/09/03 01:03:10;;;;;;;9.68;8.13;;;13.40;99.90;;;;;;5090637;28;20405;-79
2023/09/03 01:05:36;;;;;;;9.00;7.40;;;13.30;99.90;;;;;;5090288;28;20103;-78
2023/09/03 01:08:02;;;;;;;9.75;8.15;;;13.40;99.90;;;;;;5090431;28;20024;-79
2023/09/03 01:10:40;;;;;;;10.65;7.97;;;13.40;99.90;;;;;;5090518;28;20020;-79
2023/09/03 01:13:22;;;;;;;9.00;7.07;;;13.50;99.90;;;;;;5089562;28;20093;-79
2023/09/03 01:15:50;;;;;;;9.27;7.57;;;13.50;99.90;;;;;;5072341;28;20381;-78
2023/09/03 01:18:24;;;;;;;11.60;9.27;;;13.40;99.90;;;;;;5090298;28;20070;-79
2023/09/03 01:21:08;;;;;;;9.93;7.88;;;13.30;99.90;;;;;;5089795;28;20028;-78
2023/09/03 01:23:54;;;;;;;10.55;7.78;;;13.30;99.90;;;;;;5089653;28;20085;-78
2023/09/03 01:26:40;;;;;;;11.77;8.43;;;13.30;99.90;;;;;;5089636;28;20029;-78
2023/09/03 01:29:07;;;;;;;10.15;8.45;;;13.20;99.90;;;;;;5090194;28;20111;-78
2023/09/03 01:31:37;;;;;;;9.50;7.50;;;13.20;99.90;;;;;;5088711;28;20028;-78
2023/09/03 01:34:03;;;;;;;11.25;8.93;;;13.20;99.90;;;;;;5090162;28;20024;-79
2023/09/03 01:36:33;;;;;;;12.07;9.35;;;13.20;99.90;;;;;;5089996;28;20145;-78
2023/09/03 01:39:03;;;;;;;9.48;8.43;;;13.20;99.90;;;;;;5072050;28;20024;-78
2023/09/03 01:41:33;;;;;;;11.40;10.05;;;13.20;99.90;;;;;;5089793;28;20024;-78
2023/09/03 01:43:59;;;;;;;11.45;10.25;;;13.20;99.90;;;;;;5089738;28;20035;-78
2023/09/03 01:46:41;;;;;;;14.77;9.88;;;13.20;99.90;;;;;;5089961;28;20043;-78
2023/09/03 01:49:26;;;;;;;12.65;10.20;;;13.20;99.90;;;;;;5089827;28;20443;-78
2023/09/03 01:52:04;;;;;;;11.02;8.73;;;13.20;99.90;;;;;;5090085;28;20111;-78
2023/09/03 01:54:40;;;;;;;10.45;9.25;;;13.20;99.90;;;;;;5089423;28;20028;-78
2023/09/03 01:57:10;;;;;;;14.38;9.93;;;13.20;99.90;;;;;;5089922;28;20032;-78
2023/09/03 01:59:45;;;;;;;11.95;9.35;;;13.20;99.90;;;;;;5089526;28;20032;-77
2023/09/03 02:02:12;;;;;;;10.07;9.05;;;13.10;99.90;;;;;;5089940;28;20043;-78
2023/09/03 02:04:39;;;;;;;12.32;9.35;;;13.10;99.90;;;;;;5089294;28;20032;-78
2023/09/03 02:07:05;;;;;;;9.00;7.78;;;13.20;99.90;;;;;;5090091;28;20029;-79
2023/09/03 02:09:31;;;;;;;9.55;7.18;;;13.30;99.90;;;;;;5089304;28;20053;-78
2023/09/03 02:11:57;;;;;;;8.10;6.60;;;13.20;99.90;;;;;;5090853;28;20109;-78
2023/09/03 02:14:23;;;;;;;8.48;7.03;;;13.30;99.90;;;;;;5090261;28;20036;-77
2023/09/03 02:16:50;;;;;;;7.53;6.10;;;13.30;99.90;;;;;;5090132;28;20032;-77
2023/09/03 02:19:16;;;;;;;6.55;5.80;;;13.30;99.90;;;;;;5090491;28;20097;-78
2023/09/03 02:21:42;;;;;;;6.53;5.82;;;13.30;99.90;;;;;;5089626;28;20032;-78
2023/09/03 02:24:07;;;;;;;10.70;6.47;;;13.40;99.90;;;;;;5090283;28;20032;-78
2023/09/03 02:26:42;;;;;;;5.75;5.05;;;13.40;99.90;;;;;;5089925;28;20062;-77
2023/09/03 02:29:08;;;;;;;7.90;5.20;;;13.50;99.90;;;;;;5090369;28;20034;-78
2023/09/03 02:31:34;;;;;;;7.43;5.63;;;13.40;99.90;;;;;;5089887;28;20131;-79
2023/09/03 02:34:00;;;;;;;6.65;5.20;;;13.50;99.90;;;;;;5090346;28;20119;-79
2023/09/03 02:36:26;;;;;;;9.20;5.40;;;13.40;99.90;;;;;;5089963;28;20461;-79
2023/09/03 02:39:07;;;;;;;7.10;5.30;;;13.40;99.90;;;;;;5090009;28;20036;-78
2023/09/03 02:41:33;;;;;;;8.27;6.05;;;13.30;99.90;;;;;;5089832;28;20028;-79
2023/09/03 02:44:01;;;;;;;7.68;5.32;;;13.20;99.90;;;;;;5092897;28;20028;-78
2023/09/03 02:46:27;;;;;;;6.35;5.60;;;13.20;99.90;;;;;;5093409;28;20027;-79
2023/09/03 02:48:53;;;;;;;8.70;6.13;;;13.10;99.90;;;;;;5093443;28;20028;-79
2023/09/03 02:51:19;;;;;;;8.35;6.18;;;13.00;99.90;;;;;;5093298;28;20028;-79
2023/09/03 02:53:47;;;;;;;7.13;6.40;;;13.00;99.90;;;;;;5092811;28;20126;-78
2023/09/03 02:56:13;;;;;;;8.45;6.75;;;13.00;99.90;;;;;;5093543;28;20031;-79
2023/09/03 02:58:40;;;;;;;10.05;6.28;;;12.90;99.90;;;;;;5092860;28;20115;-79
2023/09/03 03:01:07;;;;;;;9.43;6.90;;;12.90;99.90;;;;;;5093261;28;20085;-79
2023/09/03 03:03:33;;;;;;;9.00;5.72;;;12.90;99.90;;;;;;5092735;28;20055;-79
2023/09/03 03:05:59;;;;;;;7.05;6.00;;;12.80;99.90;;;;;;5093130;28;20027;-78
2023/09/03 03:08:25;;;;;;;8.35;6.25;;;12.90;99.90;;;;;;5093239;28;20150;-77
2023/09/03 03:10:51;;;;;;;8.48;6.20;;;12.80;99.90;;;;;;5074375;28;20469;-78
2023/09/03 03:13:17;;;;;;;6.53;5.93;;;12.80;99.90;;;;;;5092799;28;20040;-79
2023/09/03 03:15:43;;;;;;;9.75;6.72;;;12.80;99.90;;;;;;5073897;28;20044;-78
2023/09/03 03:18:09;;;;;;;9.43;7.13;;;12.80;99.90;;;;;;5093670;28;20509;-78
2023/09/03 03:20:35;;;;;;;9.88;7.20;;;12.70;99.90;;;;;;5092455;28;20032;-78
2023/09/03 03:23:01;;;;;;;7.80;6.43;;;12.70;99.90;;;;;;5092739;28;20081;-78
2023/09/03 03:25:26;;;;;;;8.35;6.78;;;12.70;99.90;;;;;;5092492;28;20028;-78
2023/09/03 03:27:52;;;;;;;6.75;5.45;;;12.80;99.90;;;;;;5092096;28;20121;-78
2023/09/03 03:30:18;;;;;;;6.57;5.50;;;12.80;99.90;;;;;;5074140;28;20031;-78
2023/09/03 03:32:44;;;;;;;7.32;3.90;;;12.80;99.90;;;;;;5091742;28;20381;-78
2023/09/03 03:35:10;;;;;;;4.55;4.10;;;12.90;99.90;;;;;;5092386;28;20051;-78
2023/09/03 03:37:35;;;;;;;4.80;3.38;;;12.90;99.90;;;;;;5092236;28;20028;-79
2023/09/03 03:40:02;;;;;;;4.00;3.38;;;13.00;99.90;;;;;;5092897;28;20028;-78
2023/09/03 03:42:28;;;;;;;4.18;3.42;;;13.00;99.90;;;;;;5092917;28;20028;-78
2023/09/03 03:44:54;;;;;;;6.00;3.60;;;13.00;99.90;;;;;;5073903;28;20056;-78
2023/09/03 03:47:19;;;;;;;4.07;3.50;;;13.00;99.90;;;;;;5092745;28;20036;-78
2023/09/03 03:49:45;;;;;;;5.13;4.30;;;13.00;99.90;;;;;;5091772;28;20028;-78
2023/09/03 03:52:11;;;;;;;7.18;5.78;;;12.90;99.90;;;;;;5091860;28;20027;-78
2023/09/03 03:54:36;;;;;;;6.47;5.53;;;12.90;99.90;;;;;;5090064;28;20441;-78
2023/09/03 03:57:03;;;;;;;7.10;6.03;;;12.80;99.90;;;;;;5091873;28;20031;-78
2023/09/03 03:59:28;;;;;;;8.70;7.03;;;12.80;99.90;;;;;;5091731;28;20078;-78
2023/09/03 04:01:54;;;;;;;6.80;5.70;;;12.70;99.90;;;;;;5091195;28;20055;-78
2023/09/03 04:04:21;;;;;;;7.15;6.10;;;12.70;99.90;;;;;;5091873;28;20039;-79
2023/09/03 04:06:47;;;;;;;6.88;6.05;;;12.70;99.90;;;;;;5091097;28;20059;-79
2023/09/03 04:09:13;;;;;;;7.95;5.70;;;12.60;99.90;;;;;;5091941;28;20066;-78
2023/09/03 04:11:38;;;;;;;6.75;5.05;;;12.70;99.90;;;;;;5091719;28;20107;-78
2023/09/03 04:14:04;;;;;;;6.45;5.40;;;12.70;99.90;;;;;;5091724;28;20035;-78
2023/09/03 04:16:30;;;;;;;6.88;5.22;;;12.70;99.90;;;;;;5091641;28;20031;-78
2023/09/03 04:18:56;;;;;;;6.78;5.63;;;12.80;99.90;;;;;;5091312;28;20345;-77
2023/09/03 04:21:21;;;;;;;5.85;5.13;;;12.80;99.90;;;;;;5091349;28;20103;-77
2023/09/03 04:23:47;;;;;;;6.72;5.03;;;12.70;99.90;;;;;;5072630;28;20050;-77
2023/09/03 04:26:13;;;;;;;8.75;4.78;;;12.70;99.90;;;;;;5091224;28;20425;-78
2023/09/03 04:28:39;;;;;;;5.05;4.55;;;12.80;99.90;;;;;;5090690;28;20358;-77
2023/09/03 04:31:07;;;;;;;6.43;4.72;;;12.70;99.90;;;;;;5091354;28;20028;-78
2023/09/03 04:33:35;;;;;;;5.38;3.85;;;12.70;99.90;;;;;;5090826;28;20023;-78
2023/09/03 04:36:02;;;;;;;7.45;4.90;;;12.80;99.90;;;;;;5091550;28;20086;-78
2023/09/03 04:38:29;;;;;;;6.03;4.47;;;12.80;99.90;;;;;;5090929;28;20028;-78
2023/09/03 04:40:56;;;;;;;4.63;3.92;;;12.80;99.90;;;;;;5072434;28;20871;-78
2023/09/03 04:43:22;;;;;;;6.82;4.30;;;12.80;99.90;;;;;;5091139;28;20213;-78
2023/09/03 04:45:50;;;;;;;6.65;4.63;;;12.70;99.90;;;;;;5090740;28;20048;-78
2023/09/03 04:48:17;;;;;;;6.18;4.20;;;12.60;99.90;;;;;;5090746;28;20435;-78
2023/09/03 04:50:43;;;;;;;5.85;5.18;;;12.70;99.90;;;;;;5090404;28;20464;-78
2023/09/03 04:53:11;;;;;;;6.13;5.18;;;12.60;99.90;;;;;;5090571;28;20400;-78
2023/09/03 04:55:37;;;;;;;7.97;5.30;;;12.50;99.90;;;;;;5090537;28;20093;-78
2023/09/03 04:58:03;;;;;;;9.45;5.90;;;12.40;99.90;;;;;;5091045;28;20028;-78
2023/09/03 05:00:30;;;;;;;7.22;6.18;;;12.30;99.90;;;;;;5072674;28;20398;-78
2023/09/03 05:02:56;;;;;;;10.05;5.95;;;12.20;99.90;;;;;;5071846;28;20119;-78
2023/09/03 05:05:22;;;;;;;8.45;5.97;;;12.20;99.90;;;;;;5090373;28;20515;-78
2023/09/03 05:07:47;;;;;;;7.53;5.10;;;12.20;99.90;;;;;;5090025;28;20028;-78
2023/09/03 05:10:14;;;;;;;7.38;5.75;;;12.10;99.90;;;;;;5091359;28;20036;-78
2023/09/03 05:12:43;;;;;;;7.40;5.65;;;12.10;99.90;;;;;;5090413;28;20051;-78
2023/09/03 05:15:12;;;;;;;9.48;5.90;;;12.10;99.90;;;;;;5090735;28;20059;-77
2023/09/03 05:17:38;;;;;;;6.38;5.72;;;12.10;99.90;;;;;;5090208;28;20050;-77
2023/09/03 05:20:05;;;;;;;8.27;6.18;;;12.00;99.90;;;;;;5090910;28;20028;-79
2023/09/03 05:22:30;;;;;;;7.13;5.88;;;11.90;99.90;;;;;;5090674;28;20035;-78
2023/09/03 05:24:56;;;;;;;6.20;5.50;;;11.90;99.90;;;;;;5089877;28;20035;-78
2023/09/03 05:27:22;;;;;;;7.43;6.00;;;11.90;99.90;;;;;;5090250;28;20089;-78
2023/09/03 05:29:47;;;;;;;6.68;5.63;;;12.00;99.90;;;;;;5089964;28;20081;-78
2023/09/03 05:32:14;;;;;;;6.22;5.30;;;12.00;99.90;;;;;;5090643;28;20024;-76
2023/09/03 05:34:39;;;;;;;8.10;6.40;;;12.10;99.90;;;;;;5089901;28;20028;-78
2023/09/03 05:37:05;;;;;;;9.93;6.43;;;12.10;99.90;;;;;;5072465;28;20036;-77
2023/09/03 05:39:31;;;;;;;8.35;6.90;;;12.00;99.90;;;;;;5090768;28;20471;-77
2023/09/03 05:41:57;;;;;;;5.43;4.93;;;12.10;99.90;;;;;;5089962;28;20082;-78
2023/09/03 05:44:23;;;;;;;7.63;5.53;;;12.10;99.90;;;;;;5090342;28;20052;-77
2023/09/03 05:46:49;;;;;;;5.63;5.05;;;12.10;99.90;;;;;;5090145;28;20052;-78
2023/09/03 05:49:15;;;;;;;7.00;5.82;;;12.10;99.90;;;;;;5090388;28;20124;-78
2023/09/03 05:51:41;;;;;;;5.60;4.80;;;12.20;99.90;;;;;;5089628;28;20035;-79
2023/09/03 05:54:07;;;;;;;9.65;5.30;;;12.30;99.90;;;;;;5090220;28;20132;-77
2023/09/03 05:56:35;;;;;;;5.03;4.50;;;12.30;99.90;;;;;;5090590;28;20082;-78
2023/09/03 05:59:05;;;;;;;9.50;5.93;;;12.30;99.90;;;;;;5089974;28;20024;-77
2023/09/03 06:01:32;;;;;;;5.82;4.93;;;12.30;99.90;;;;;;5090594;28;20028;-78
2023/09/03 06:04:02;;;;;;;9.20;5.82;;;12.40;99.90;;;;;;5089895;28;20063;-78
2023/09/03 06:06:28;;;;;;;12.35;7.13;;;12.50;99.90;;;;;;5090520;28;20027;-77
2023/09/03 06:08:54;;;;;;;9.85;7.15;;;12.40;99.90;;;;;;5089791;28;20038;-77
2023/09/03 06:11:20;;;;;;;7.75;6.72;;;12.40;99.90;;;;;;5090924;28;20020;-77
2023/09/03 06:13:46;;;;;;;8.82;6.45;;;12.40;99.90;;;;;;5089621;28;20039;-77
2023/09/03 06:16:11;;;;;;;8.85;5.70;;;12.40;99.90;;;;;;5090669;28;20024;-78
2023/09/03 06:18:37;;;;;;;8.60;6.72;;;12.40;99.90;;;;;;5094017;28;20346;-77
2023/09/03 06:21:03;;;;;;;9.07;6.72;;;12.40;99.90;;;;;;5093853;28;20445;-78
2023/09/03 06:23:29;;;;;;;9.73;6.68;;;12.50;99.90;;;;;;5093648;28;20028;-78
2023/09/03 06:25:54;;;;;;;9.57;6.68;;;12.70;99.90;;;;;;5093272;28;20024;-78
2023/09/03 06:28:20;;;;;;;7.43;5.78;;;12.70;99.90;;;;;;5094164;28;20044;-78
2023/09/03 06:30:46;;;;;;;9.15;6.60;;;12.90;99.90;;;;;;5093309;28;20426;-78
2023/09/03 06:33:12;;;;;;;8.02;5.40;;;12.90;99.90;;;;;;5093944;28;20111;-78
2023/09/03 06:35:38;;;;;;;8.10;6.18;;;13.00;99.90;;;;;;5093772;28;20055;-78
2023/09/03 06:38:04;;;;;;;7.18;6.20;;;13.10;99.90;;;;;;5092664;28;20492;-77
2023/09/03 06:40:29;;;;;;;7.05;4.97;;;13.20;99.90;;;;;;5093845;28;20298;-79
2023/09/03 06:42:55;;;;;;;6.32;4.80;;;13.40;99.90;;;;;;5093315;28;20036;-78
2023/09/03 06:45:21;;;;;;;4.90;4.30;;;13.50;99.90;;;;;;5093580;28;20096;-77
2023/09/03 06:47:47;;;;;;;8.50;5.68;;;13.70;99.90;;;;;;5092834;28;20043;-77
2023/09/03 06:50:13;;;;;;;9.30;5.75;;;13.70;99.90;;;;;;5093198;28;20024;-78
2023/09/03 06:52:39;;;;;;;5.07;4.53;;;13.80;99.90;;;;;;5093070;28;20032;-77
2023/09/03 06:55:05;;;;;;;7.15;4.40;;;13.90;99.90;;;;;;5092400;28;20039;-78
2023/09/03 06:57:32;;;;;;;6.35;4.97;;;14.00;99.90;;;;;;5074996;28;20067;-78
2023/09/03 06:59:58;;;;;;;6.60;3.90;;;14.10;99.90;;;;;;5074554;28;20372;-78
2023/09/03 07:02:25;;;;;;;4.78;3.92;;;14.20;99.90;;;;;;5093387;28;20099;-79
2023/09/03 07:04:51;;;;;;;4.85;3.70;;;14.30;99.90;;;;;;5092736;28;20064;-79
2023/09/03 07:07:17;;;;;;;4.40;3.90;;;14.40;99.90;;;;;;5093609;28;20023;-79
2023/09/03 07:09:43;;;;;;;5.00;3.75;;;14.60;99.90;;;;;;5093227;28;20035;-78
2023/09/03 07:12:09;;;;;;;6.15;4.15;;;14.70;99.90;;;;;;5093717;28;20094;-79
2023/09/03 07:14:35;;;;;;;6.13;4.22;;;14.90;99.90;;;;;;5093806;28;20366;-79
2023/09/03 07:17:03;;;;;;;4.53;3.70;;;15.10;99.90;;;;;;5092966;28;20095;-79
2023/09/03 07:19:29;;;;;;;3.97;3.58;;;15.20;99.90;;;;;;5093399;28;20075;-79
2023/09/03 07:21:55;;;;;;;6.13;4.45;;;15.30;99.90;;;;;;5092340;28;20457;-79
2023/09/03 07:24:21;;;;;;;6.68;4.75;;;15.40;99.90;;;;;;5092382;28;20066;-77
2023/09/03 07:26:47;;;;;;;6.03;3.92;;;15.40;99.90;;;;;;5091943;28;20026;-78
2023/09/03 07:29:13;;;;;;;4.13;3.70;;;15.50;99.90;;;;;;5092620;28;20024;-78
2023/09/03 07:31:43;;;;;;;4.97;3.58;;;15.60;99.90;;;;;;5093542;28;20098;-78
2023/09/03 07:34:14;;;;;;;5.63;3.80;;;15.80;99.90;;;;;;5092029;28;20106;-80
2023/09/03 07:36:40;;;;;;;3.22;2.92;;;15.90;99.90;;;;;;5092846;28;20046;-79
2023/09/03 07:39:09;;;;;;;3.25;2.33;;;16.00;99.90;;;;;;5092047;28;20128;-78
2023/09/03 07:41:35;;;;;;;4.53;2.90;;;16.20;99.90;;;;;;5092867;28;20030;-78
2023/09/03 07:44:01;;;;;;;4.28;3.20;;;16.20;99.90;;;;;;5091113;28;20466;-79
2023/09/03 07:46:27;;;;;;;3.20;2.83;;;16.30;99.90;;;;;;5074333;28;20036;-78
2023/09/03 07:48:53;;;;;;;3.22;2.35;;;16.40;99.90;;;;;;5091575;28;20023;-78
2023/09/03 07:51:20;;;;;;;4.18;2.60;;;16.60;99.90;;;;;;5092048;28;20093;-78
2023/09/03 07:53:49;;;;;;;3.65;2.40;;;16.70;99.90;;;;;;5091567;28;20107;-78
2023/09/03 07:56:18;;;;;;;3.70;2.95;;;16.80;99.90;;;;;;5091646;28;20024;-78
2023/09/03 07:58:44;;;;;;;4.47;3.20;;;17.00;99.90;;;;;;5092048;28;20135;-79
2023/09/03 08:01:16;;;;;;;4.72;3.30;;;17.10;99.90;;;;;;5091291;28;20027;-79
2023/09/03 08:03:45;;;;;;;3.40;2.40;;;17.10;99.90;;;;;;5092374;28;20023;-79
2023/09/03 08:06:13;;;;;;;3.30;2.78;;;17.20;99.90;;;;;;5091991;28;20453;-80
2023/09/03 08:08:39;;;;;;;3.72;3.03;;;17.30;99.90;;;;;;5092227;28;20031;-79
2023/09/03 08:11:05;;;;;;;3.92;2.22;;;17.40;99.90;;;;;;5091421;28;20139;-78
2023/09/03 08:13:31;;;;;;;4.35;2.92;;;17.50;99.90;;;;;;5091570;28;20028;-78
2023/09/03 08:15:56;;;;;;;2.63;2.05;;;17.60;99.90;;;;;;5091050;28;20032;-78
2023/09/03 08:18:22;;;;;;;2.17;1.98;;;17.60;99.90;;;;;;5091851;28;20024;-78
2023/09/03 08:20:51;;;;;;;3.58;2.47;;;17.70;99.90;;;;;;5091520;28;20461;-79
2023/09/03 08:23:18;;;;;;;4.18;3.47;;;17.80;99.90;;;;;;5091696;28;20425;-79
2023/09/03 08:25:44;;;;;;;7.95;3.20;;;17.90;99.90;;;;;;5091486;28;20425;-79
2023/09/03 08:28:10;;;;;;;5.47;3.13;;;17.90;99.90;;;;;;5091400;28;20020;-78
2023/09/03 08:30:37;;;;;;;6.28;3.05;;;18.00;99.90;;;;;;5091833;28;20130;-78
2023/09/03 08:33:03;;;;;;;3.97;2.70;;;18.10;99.90;;;;;;5091418;28;20092;-78
2023/09/03 08:35:29;;;;;;;5.07;2.75;;;18.20;99.90;;;;;;5091556;28;20428;-78
2023/09/03 08:37:55;;;;;;;5.88;2.95;;;18.30;99.90;;;;;;5091468;28;20051;-78
2023/09/03 08:40:21;;;;;;;5.10;2.72;;;18.40;99.90;;;;;;5091323;28;20038;-77
2023/09/03 08:42:48;;;;;;;2.53;2.08;;;18.40;99.90;;;;;;5091367;28;20024;-78
2023/09/03 08:45:17;;;;;;;3.55;2.72;;;18.50;99.90;;;;;;5090861;28;20051;-79
2023/09/03 08:47:44;;;;;;;3.05;2.22;;;18.50;99.90;;;;;;5091469;28;20475;-78
2023/09/03 08:50:14;;;;;;;2.33;2.10;;;18.60;99.90;;;;;;5090580;28;20016;-77
2023/09/03 08:52:44;;;;;;;3.35;2.22;;;18.60;99.90;;;;;;5090714;28;20047;-78
2023/09/03 08:55:12;;;;;;;3.92;2.00;;;18.80;99.90;;;;;;5090269;28;20038;-80
2023/09/03 08:57:38;;;;;;;3.17;2.20;;;18.90;99.90;;;;;;5091325;28;20028;-79
2023/09/03 09:00:06;;;;;;;4.80;2.22;;;19.00;99.90;;;;;;5091247;28;20031;-78
2023/09/03 09:02:33;;;;;;;4.95;3.13;;;19.10;99.90;;;;;;5091537;28;20457;-79
2023/09/03 09:05:01;;;;;;;4.78;2.33;;;19.20;99.90;;;;;;5090920;28;20153;-78
2023/09/03 09:07:27;;;;;;;4.95;2.15;;;19.30;99.90;;;;;;5091555;28;20020;-79
2023/09/03 09:09:58;;;;;;;4.65;2.25;;;19.30;99.90;;;;;;5091458;28;20027;-80
2023/09/03 09:12:30;;;;;;;3.47;2.42;;;19.50;99.90;;;;;;5091430;28;20477;-79
2023/09/03 09:15:05;;;;;;;2.43;1.83;;;19.50;99.90;;;;;;5089941;28;20093;-80
2023/09/03 09:17:41;;;;;;;4.28;2.42;;;19.60;99.90;;;;;;5090918;28;20055;-80
2023/09/03 09:20:08;;;;;;;4.75;2.20;;;19.80;99.90;;;;;;5089803;28;20024;-79
2023/09/03 09:22:42;;;;;;;3.03;1.92;;;20.00;99.90;;;;;;5090620;28;20024;-79
2023/09/03 09:25:09;;;;;;;2.58;1.75;;;20.10;99.90;;;;;;5072074;28;20302;-79
2023/09/03 09:27:38;;;;;;;3.75;2.30;;;20.10;99.90;;;;;;5090855;28;20024;-79
2023/09/03 09:30:15;;;;;;;3.70;1.88;;;20.20;99.90;;;;;;5090404;28;20047;-80
2023/09/03 09:32:42;;;;;;;5.03;1.88;;;20.20;99.90;;;;;;5091105;28;20081;-79
2023/09/03 09:35:09;;;;;;;4.32;1.77;;;20.20;99.90;;;;;;5091492;28;20057;-80
2023/09/03 09:37:39;;;;;;;7.38;2.05;;;20.30;99.90;;;;;;5091947;28;20047;-79
2023/09/03 09:40:09;;;;;;;7.03;2.22;;;20.40;99.90;;;;;;5091727;28;20362;-79
2023/09/03 09:42:50;;;;;;;4.00;1.60;;;20.50;99.90;;;;;;5092064;28;20445;-79
2023/09/03 09:45:16;;;;;;;3.72;1.90;;;20.60;99.90;;;;;;5089918;28;20230;-79
2023/09/03 09:47:42;;;;;;;5.15;1.80;;;20.70;99.90;;;;;;5072098;28;20166;-78
2023/09/03 09:50:08;;;;;;;2.42;1.60;;;20.70;99.90;;;;;;5089879;28;20021;-79
2023/09/03 09:52:36;;;;;;;2.33;1.70;;;20.80;99.90;;;;;;5092954;28;20035;-79
2023/09/03 09:55:01;;;;;;;3.70;2.42;;;20.90;99.90;;;;;;5094277;28;20043;-79
2023/09/03 09:57:27;;;;;;;3.92;2.08;;;21.00;99.90;;;;;;5094095;28;20024;-80
2023/09/03 10:00:03;;;;;;;2.17;1.77;;;20.80;99.90;;;;;;5094493;28;20099;-79
2023/09/03 10:02:29;;;;;;;3.42;1.88;;;20.80;99.90;;;;;;5094201;28;20020;-79
2023/09/03 10:04:55;;;;;;;2.92;1.92;;;20.70;99.90;;;;;;5094073;28;20039;-80
2023/09/03 10:07:21;;;;;;;5.45;2.05;;;20.60;99.90;;;;;;5094219;28;20089;-80
2023/09/03 10:09:47;;;;;;;6.15;2.40;;;20.50;99.90;;;;;;5094267;28;20036;-79
2023/09/03 10:12:13;;;;;;;5.63;2.53;;;20.40;99.90;;;;;;5093531;28;20491;-80
2023/09/03 10:14:39;;;;;;;7.80;2.45;;;20.40;99.90;;;;;;5093976;28;20075;-79
2023/09/03 10:17:09;;;;;;;5.97;2.00;;;20.30;99.90;;;;;;5093397;28;20108;-80
2023/09/03 10:19:55;;;;;;;4.90;2.38;;;20.30;99.90;;;;;;5093905;28;20380;-79
2023/09/03 10:22:23;;;;;;;4.72;2.28;;;20.40;99.90;;;;;;5093302;28;20062;-79
2023/09/03 10:25:04;;;;;;;3.78;2.38;;;20.40;99.90;;;;;;5075723;28;20044;-79
2023/09/03 10:27:34;;;;;;;3.33;1.70;;;20.40;99.90;;;;;;5093215;28;20392;-79
2023/09/03 10:30:04;;;;;;;4.35;2.10;;;20.50;99.90;;;;;;5093272;28;20026;-78
2023/09/03 10:32:33;;;;;;;6.25;2.78;;;20.60;99.90;;;;;;5093130;28;20028;-78
2023/09/03 10:35:06;;;;;;;4.22;1.88;;;20.60;99.90;;;;;;5092802;28;20149;-79
2023/09/03 10:37:41;;;;;;;3.95;1.88;;;20.60;99.90;;;;;;5075975;28;20032;-78
2023/09/03 10:40:18;;;;;;;6.82;2.20;;;20.70;99.90;;;;;;5092557;28;20024;-78
2023/09/03 10:42:44;;;;;;;3.30;1.92;;;20.70;99.90;;;;;;5093500;28;20506;-79
2023/09/03 10:45:12;;;;;;;3.88;2.00;;;20.70;99.90;;;;;;5092038;28;20047;-79
2023/09/03 10:47:56;;;;;;;4.28;1.73;;;20.80;99.90;;;;;;5091802;28;20122;-78
2023/09/03 10:50:50;;;;;;;4.55;2.13;;;20.70;99.90;;;;;;5091353;28;20032;-79
2023/09/03 10:53:35;;;;;;;2.80;1.70;;;20.80;99.90;;;;;;5090921;28;20036;-79
2023/09/03 10:56:09;;;;;;;3.47;1.73;;;20.80;99.90;;;;;;5091119;28;20028;-78
2023/09/03 10:58:35;;;;;;;2.03;1.52;;;20.80;99.90;;;;;;5091336;28;20398;-79
2023/09/03 11:01:18;;;;;;;2.78;1.48;;;20.80;99.90;;;;;;5072780;28;20043;-80
2023/09/03 11:03:48;;;;;;;2.90;1.70;;;20.80;99.90;;;;;;5098531;28;20044;-80
2023/09/03 11:06:16;;;;;;;2.05;1.42;;;20.80;99.90;;;;;;5113589;28;20025;-80
2023/09/03 11:08:42;;;;;;;3.25;1.42;;;20.80;99.90;;;;;;5114583;28;20032;-80
2023/09/03 11:11:10;;;;;;;3.28;1.85;;;20.90;99.90;;;;;;5114463;28;20044;-79
2023/09/03 11:13:36;;;;;;;2.00;1.55;;;20.90;99.90;;;;;;5114322;28;20020;-81
2023/09/03 11:16:02;;;;;;;5.65;1.73;;;20.90;99.90;;;;;;5097804;28;20073;-79
2023/09/03 11:18:30;;;;;;;2.70;1.80;;;20.80;99.90;;;;;;5091670;28;20024;-80
2023/09/03 11:20:57;;;;;;;3.15;1.80;;;20.90;99.90;;;;;;5073982;28;20031;-79
2023/09/03 11:23:22;;;;;;;2.72;1.50;;;20.90;99.90;;;;;;5090958;28;20116;-78
2023/09/03 11:25:48;;;;;;;3.83;1.48;;;21.00;99.90;;;;;;5091580;28;20020;-79
2023/09/03 11:28:14;;;;;;;2.25;1.13;;;21.10;99.90;;;;;;5092387;28;20161;-79
2023/09/03 11:30:45;;;;;;;3.47;1.50;;;21.10;99.90;;;;;;5073932;28;20426;-79
2023/09/03 11:33:27;;;;;;;1.60;1.20;;;21.20;99.90;;;;;;5091395;28;20088;-79
2023/09/03 11:35:54;;;;;;;2.08;1.27;;;21.30;99.90;;;;;;5073759;28;20024;-79
2023/09/03 11:38:32;;;;;;;1.75;1.20;;;21.20;99.90;;;;;;5090755;28;20047;-79
2023/09/03 11:40:58;;;;;;;3.03;1.58;;;21.20;99.90;;;;;;5091777;28;20024;-78
2023/09/03 11:43:26;;;;;;;1.40;1.30;;;21.20;99.90;;;;;;5090816;28;20036;-79
2023/09/03 11:45:52;;;;;;;3.17;1.33;;;21.30;99.90;;;;;;5028313;28;1314931;-79
2023/09/03 11:48:29;;;;;;;1.83;1.20;;;21.20;99.90;;;;;;5091937;28;20441;-80
2023/09/03 11:50:55;;;;;;;2.58;1.02;;;21.30;99.90;;;;;;5092991;28;20081;-79
2023/09/03 11:53:22;;;;;;;2.00;0.90;;;21.40;99.90;;;;;;5092833;28;20123;-79
2023/09/03 11:55:54;;;;;;;3.15;1.20;;;21.50;99.90;;;;;;5092597;28;20031;-79
2023/09/03 11:58:25;;;;;;;3.15;1.23;;;21.50;99.90;;;;;;5091745;28;20124;-80
2023/09/03 12:00:53;;;;;;;2.50;0.93;;;21.60;99.90;;;;;;5093136;28;20036;-79
2023/09/03 12:03:19;;;;;;;1.33;0.90;;;21.60;99.90;;;;;;5092389;28;20024;-79
2023/09/03 12:05:44;;;;;;;2.13;0.90;;;21.70;99.90;;;;;;5092815;28;20491;-79
2023/09/03 12:08:10;;;;;;;1.20;1.00;;;21.70;99.90;;;;;;5091655;28;20322;-80
2023/09/03 12:10:36;;;;;;;2.25;1.20;;;21.70;99.90;;;;;;5074515;28;20028;-79
2023/09/03 12:13:03;;;;;;;2.25;1.30;;;21.70;99.90;;;;;;5092509;28;20028;-79
2023/09/03 12:15:31;;;;;;;2.03;1.10;;;21.70;99.90;;;;;;5090778;28;20036;-80
2023/09/03 12:18:09;;;;;;;1.88;1.00;;;21.70;99.90;;;;;;5092476;28;20030;-80
2023/09/03 12:20:54;;;;;;;1.70;1.15;;;21.70;99.90;;;;;;5092075;28;20024;-80
2023/09/03 12:23:20;;;;;;;1.95;0.80;;;21.80;99.90;;;;;;5091684;28;20103;-79
2023/09/03 12:25:46;;;;;;;1.35;0.90;;;21.80;99.90;;;;;;5092348;28;20123;-79
2023/09/03 12:28:13;;;;;;;1.00;0.90;;;21.80;99.90;;;;;;5091628;28;20154;-79
2023/09/03 12:30:58;;;;;;;2.00;0.77;;;21.80;99.90;;;;;;5091695;28;20165;-80
2023/09/03 12:33:37;;;;;;;4.10;0.90;;;21.80;99.90;;;;;;5091769;28;20028;-80
2023/09/03 12:36:21;;;;;;;2.13;1.02;;;21.90;99.90;;;;;;5091650;28;20032;-80
2023/09/03 12:39:03;;;;;;;2.15;1.08;;;21.90;99.90;;;;;;5091288;28;20043;-80
2023/09/03 12:41:34;;;;;;;2.90;1.27;;;21.90;99.90;;;;;;5090275;28;20115;-78
2023/09/03 12:44:07;;;;;;;2.53;1.10;;;22.00;99.90;;;;;;5072056;28;20385;-79
2023/09/03 12:46:37;;;;;;;1.67;0.80;;;21.90;99.90;;;;;;5090075;28;20118;-77
2023/09/03 12:49:03;;;;;;;1.50;0.82;;;22.00;99.90;;;;;;5090071;28;20052;-79
2023/09/03 12:51:29;;;;;;;1.33;0.80;;;21.90;99.90;;;;;;5071417;28;20040;-78